»·PEaware :: N6005F KABQ-KGPI

N6005F :: KABQ-KGPI

FLIGHT INFORMATION

Flight Status: Arrived
Operator: Privately registered:
United States
More flights under this callsign
Pilot: Anonymous 18904 (18904)
Aircraft: CANADAIR CL-600 CHALLENGER
(CL60)
More flights by this aircraft type
Origin: KABQ Albuquerque Intl Sunport
United States
Destination: KGPI Glacier Park Intl
United States
More flights between these airports :: More routes between these airports
Route: JEMEZ3 JEMEZ ETL VEL UROCO BGMAN SKOTT
File this flight plan on PilotEdge
Remarks: RMK / HONK )
Altitude:
(Current/Filed)
38,000ft
Speed:
(Current/Filed)
473kts
Departed: 30-Nov-23 02:56 PM
Arrived: 30-Nov-23 05:02 PM
Distance/Time
Traveled:
866nm/2:06
Distance/Time
To Go:
Arrived

Flight Plot

Page will automatically refresh every two minutes.

Flight plan parsing failed; only flown route is shown


Map Options




Map Legend


Flown Route
Filed Route
Departure Airport
Arrival Airport
Navaid (VOR, NDB)
Fix

Horizontal Profiles

Position Reports

Time Latitude Longitude Heading Altitude Ground
Speed
30-Nov-23 14:33 35.039140 -106.619102 0 5311ft 0kts
30-Nov-23 14:34 35.039140 -106.619102 38 5311ft 0kts
30-Nov-23 14:35 35.039140 -106.619102 38 5311ft 0kts
30-Nov-23 14:36 35.039140 -106.619102 38 5311ft 0kts
30-Nov-23 14:37 35.039140 -106.619102 38 5311ft 0kts
30-Nov-23 14:38 35.039140 -106.619102 38 5311ft 0kts
30-Nov-23 14:39 35.039140 -106.619102 38 5311ft 0kts
30-Nov-23 14:40 35.039140 -106.619102 38 5311ft 0kts
30-Nov-23 14:41 35.039140 -106.619102 38 5311ft 0kts
30-Nov-23 14:42 35.039140 -106.619102 38 5311ft 0kts
30-Nov-23 14:43 35.039140 -106.619102 38 5311ft 0kts
30-Nov-23 14:44 35.039140 -106.619102 38 5311ft 0kts
30-Nov-23 14:45 35.039140 -106.619102 38 5311ft 0kts
30-Nov-23 14:46 35.039140 -106.619102 38 5311ft 0kts
30-Nov-23 14:47 35.039140 -106.619102 38 5311ft 0kts
30-Nov-23 14:48 35.039140 -106.619102 38 5311ft 0kts
30-Nov-23 14:49 35.039140 -106.619102 38 5311ft 0kts
30-Nov-23 14:50 35.039140 -106.619102 38 5311ft 0kts
30-Nov-23 14:51 35.039141 -106.619101 38 5311ft 0kts
30-Nov-23 14:52 35.039641 -106.619292 304 5311ft 7kts
30-Nov-23 14:53 35.041969 -106.621428 0 5301ft 17kts
30-Nov-23 14:54 35.043321 -106.621418 359 5301ft 7kts
30-Nov-23 14:55 35.044270 -106.609439 89 5320ft 146kts
30-Nov-23 14:56 35.043634 -106.540963 88 7680ft 254kts
30-Nov-23 14:57 35.097825 -106.507632 317 11710ft 282kts
30-Nov-23 14:58 35.147396 -106.584367 306 16106ft 299kts
30-Nov-23 14:59 35.200199 -106.664320 306 19889ft 308kts
30-Nov-23 15:00 35.265167 -106.739722 323 22072ft 359kts
30-Nov-23 15:01 35.357719 -106.810070 323 23533ft 408kts
30-Nov-23 15:02 35.462768 -106.867363 347 25920ft 435kts
30-Nov-23 15:03 35.584681 -106.885877 346 27882ft 444kts
30-Nov-23 15:04 35.709218 -106.905016 346 29396ft 453kts
30-Nov-23 15:05 35.832496 -106.923965 345 31535ft 441kts
30-Nov-23 15:06 35.952887 -106.950322 332 32878ft 430kts
30-Nov-23 15:07 36.059621 -107.013916 327 34260ft 423kts
30-Nov-23 15:08 36.165439 -107.078613 327 35289ft 426kts
30-Nov-23 15:09 36.271852 -107.143854 327 36310ft 427kts
30-Nov-23 15:10 36.378578 -107.209490 328 37192ft 428kts
30-Nov-23 15:11 36.485506 -107.275444 328 38010ft 427kts
30-Nov-23 15:12 36.594307 -107.342827 328 37923ft 445kts
30-Nov-23 15:13 36.706580 -107.412530 328 37964ft 453kts
30-Nov-23 15:14 36.819619 -107.482907 328 37928ft 453kts
30-Nov-23 15:15 36.932318 -107.553314 328 37928ft 452kts
30-Nov-23 15:16 37.045064 -107.623998 328 37987ft 453kts
30-Nov-23 15:17 37.158699 -107.695497 328 37934ft 455kts
30-Nov-23 15:18 37.271923 -107.766957 328 37930ft 454kts
30-Nov-23 15:19 37.384739 -107.838412 328 37934ft 454kts
30-Nov-23 15:20 37.497965 -107.910378 328 37932ft 455kts
30-Nov-23 15:21 37.611176 -107.982574 328 37984ft 455kts
30-Nov-23 15:22 37.724188 -108.054894 328 37944ft 456kts
30-Nov-23 15:23 37.837415 -108.127603 328 37973ft 456kts
30-Nov-23 15:24 37.949534 -108.199846 328 38003ft 455kts
30-Nov-23 15:25 38.063208 -108.270839 333 38074ft 460kts
30-Nov-23 15:26 38.182755 -108.331576 333 37993ft 461kts
30-Nov-23 15:27 38.301291 -108.392175 333 37988ft 459kts
30-Nov-23 15:28 38.420107 -108.453207 334 37976ft 461kts
30-Nov-23 15:29 38.538621 -108.514331 334 38037ft 460kts
30-Nov-23 15:30 38.656511 -108.575379 334 38018ft 461kts
30-Nov-23 15:31 38.775579 -108.637264 334 38013ft 461kts
30-Nov-23 15:32 38.894654 -108.699383 333 38019ft 461kts
30-Nov-23 15:33 39.013296 -108.761508 333 37995ft 461kts
30-Nov-23 15:34 39.132185 -108.823988 333 37944ft 461kts
30-Nov-23 15:35 39.250650 -108.886471 333 37949ft 460kts
30-Nov-23 15:36 39.369209 -108.949244 333 37941ft 461kts
30-Nov-23 15:37 39.487869 -109.012291 333 38018ft 460kts
30-Nov-23 15:38 39.606583 -109.075614 333 38020ft 463kts
30-Nov-23 15:39 39.725842 -109.139455 333 38042ft 463kts
30-Nov-23 15:40 39.845036 -109.203503 333 38077ft 464kts
30-Nov-23 15:41 39.964027 -109.267683 333 38092ft 464kts
30-Nov-23 15:42 40.083027 -109.332110 333 38101ft 464kts
30-Nov-23 15:43 40.202502 -109.397041 333 38075ft 464kts
30-Nov-23 15:44 40.321101 -109.461736 334 37973ft 461kts
30-Nov-23 15:45 40.440064 -109.525327 335 38019ft 462kts
30-Nov-23 15:46 40.559474 -109.587617 335 38038ft 464kts
30-Nov-23 15:47 40.679491 -109.650482 334 38046ft 463kts
30-Nov-23 15:48 40.799275 -109.713480 334 38011ft 462kts
30-Nov-23 15:49 40.917145 -109.775720 334 38003ft 461kts
30-Nov-23 15:50 41.036505 -109.839002 334 38014ft 462kts
30-Nov-23 15:51 41.155734 -109.902463 334 37965ft 463kts
30-Nov-23 15:52 41.275089 -109.966236 334 37936ft 462kts
30-Nov-23 15:53 41.394179 -110.030126 334 37876ft 463kts
30-Nov-23 15:54 41.512535 -110.093872 334 37871ft 463kts
30-Nov-23 15:55 41.632188 -110.158571 334 37917ft 463kts
30-Nov-23 15:56 41.751356 -110.223272 334 37938ft 464kts
30-Nov-23 15:57 41.870493 -110.288212 334 37914ft 464kts
30-Nov-23 15:58 41.990141 -110.353694 334 37843ft 464kts
30-Nov-23 15:59 42.109175 -110.419101 334 37880ft 463kts
30-Nov-23 16:00 42.228274 -110.484798 334 37878ft 463kts
30-Nov-23 16:01 42.346658 -110.550388 334 37869ft 464kts
30-Nov-23 16:02 42.465490 -110.616489 334 37864ft 463kts
30-Nov-23 16:03 42.584485 -110.682953 334 37850ft 462kts
30-Nov-23 16:04 42.701988 -110.748856 334 37835ft 462kts
30-Nov-23 16:05 42.820638 -110.815677 334 37854ft 463kts
30-Nov-23 16:06 42.942156 -110.874339 339 37859ft 465kts
30-Nov-23 16:07 43.065181 -110.927134 339 37946ft 465kts
30-Nov-23 16:08 43.188174 -110.980241 339 37882ft 464kts
30-Nov-23 16:09 43.311427 -111.033744 339 37902ft 464kts
30-Nov-23 16:10 43.434117 -111.087263 339 37952ft 465kts
30-Nov-23 16:11 43.556404 -111.140847 339 37968ft 465kts
30-Nov-23 16:12 43.679155 -111.194873 339 37922ft 464kts
30-Nov-23 16:13 43.801977 -111.249170 339 37933ft 464kts
30-Nov-23 16:14 43.924060 -111.303378 339 37973ft 465kts
30-Nov-23 16:15 44.047112 -111.358253 339 37974ft 465kts
30-Nov-23 16:16 44.169598 -111.413110 339 37970ft 464kts
30-Nov-23 16:17 44.292408 -111.468361 339 37917ft 465kts
30-Nov-23 16:18 44.415266 -111.523871 339 37896ft 464kts
30-Nov-23 16:19 44.536655 -111.578961 339 37949ft 463kts
30-Nov-23 16:20 44.659206 -111.634829 339 37930ft 465kts
30-Nov-23 16:21 44.781758 -111.690938 338 37935ft 464kts
30-Nov-23 16:22 44.904303 -111.747297 338 37925ft 464kts
30-Nov-23 16:23 45.027021 -111.803990 338 37907ft 464kts
30-Nov-23 16:24 45.148347 -111.860293 338 37954ft 463kts
30-Nov-23 16:25 45.271018 -111.917481 338 37953ft 465kts
30-Nov-23 16:27 45.392437 -111.974338 338 37955ft 464kts
30-Nov-23 16:28 45.514751 -112.032098 336 37889ft 463kts
30-Nov-23 16:29 45.623873 -112.122550 324 37909ft 457kts
30-Nov-23 16:30 45.730422 -112.220828 324 37951ft 458kts
30-Nov-23 16:31 45.837417 -112.319984 324 37903ft 458kts
30-Nov-23 16:32 45.944037 -112.419257 324 37898ft 457kts
30-Nov-23 16:33 46.050400 -112.518763 324 37815ft 458kts
30-Nov-23 16:34 46.156815 -112.618779 324 37829ft 456kts
30-Nov-23 16:35 46.263054 -112.719106 324 37890ft 456kts
30-Nov-23 16:36 46.368969 -112.819602 324 37828ft 457kts
30-Nov-23 16:37 46.474551 -112.920250 324 37851ft 455kts
30-Nov-23 16:38 46.580675 -113.021906 324 37770ft 458kts
30-Nov-23 16:39 46.686238 -113.123488 324 37538ft 451kts
30-Nov-23 16:40 46.787910 -113.221769 324 36485ft 435kts
30-Nov-23 16:41 46.887543 -113.318566 325 35430ft 435kts
30-Nov-23 16:42 46.988518 -113.417113 325 32838ft 441kts
30-Nov-23 16:43 47.090219 -113.516823 326 30063ft 441kts
30-Nov-23 16:44 47.192043 -113.617128 326 27863ft 447kts
30-Nov-23 16:45 47.293690 -113.717718 325 25654ft 435kts
30-Nov-23 16:46 47.392212 -113.815683 325 23530ft 422kts
30-Nov-23 16:47 47.487087 -113.910444 324 21498ft 410kts
30-Nov-23 16:48 47.579940 -114.003591 324 19468ft 398kts
30-Nov-23 16:49 47.669764 -114.094093 324 17461ft 386kts
30-Nov-23 16:50 47.740169 -114.205410 297 15460ft 368kts
30-Nov-23 16:51 47.789760 -114.335210 297 13603ft 355kts
30-Nov-23 16:52 47.835835 -114.456308 297 11867ft 320kts
30-Nov-23 16:53 47.893123 -114.548089 328 10318ft 299kts
30-Nov-23 16:53 47.957970 -114.572557 358 9756ft 291kts
30-Nov-23 16:55 48.047574 -114.525975 30 7457ft 292kts
30-Nov-23 16:56 48.112481 -114.461377 35 6530ft 274kts
30-Nov-23 16:57 48.169068 -114.402516 34 5682ft 220kts
30-Nov-23 16:57 48.206455 -114.363724 34 5149ft 167kts
30-Nov-23 16:59 48.244533 -114.324142 34 4225ft 137kts
30-Nov-23 17:00 48.274244 -114.293143 35 3502ft 134kts
30-Nov-23 17:00 48.299636 -114.266777 34 2998ft 133kts
30-Nov-23 17:01 48.315885 -114.249835 36 2976ft 17kts
30-Nov-23 17:02 48.316351 -114.247340 217 2977ft 10kts
30-Nov-23 17:04 48.313031 -114.250787 213 2974ft 10kts
30-Nov-23 17:05 48.310363 -114.252945 134 2971ft 9kts
30-Nov-23 17:05 48.310009 -114.251943 22 2970ft 0kts
30-Nov-23 17:06 48.310009 -114.251943 22 2970ft 0kts

Navigation Log

Ident Type
Flight plan parsing failed, navigation log unavailable